Terminal Aerodrome Forecast
Issued by NWS

Current Version | Previous Version | Text Only | Print | Product List | Glossary On
Versions: 1 2 3 4 5 6 7 8 9 10 11 12 13 14 15 16 17 18 19 20 21 22 23 24 25 26 27 28 29 30 31
000
FTUS43 KDMX 280528
TAFOTM
TAF
KOTM 280528Z 2806/0106 11004KT P6SM SCT150 BKN250
     FM281300 14008KT P6SM BKN080 OVC150
     FM281800 15008KT P6SM SCT015 BKN040
     FM282000 15010G13KT 5SM -SN OVC017
     FM282300 15009KT 3SM -SN OVC010=

USA.gov is the U.S. government's official web portal to all federal, state and local government web resources and services.